createdAt,value
2023-03-18T00:02:33.500Z,69.41
2023-03-18T00:06:19.008Z,69.39
2023-03-18T00:10:02.380Z,69.57
2023-03-18T00:13:46.610Z,69.42
2023-03-18T00:17:29.362Z,68.89
2023-03-18T00:21:12.227Z,69.15
2023-03-18T00:24:55.069Z,68.93
2023-03-18T00:28:38.428Z,68.77
2023-03-18T00:32:22.638Z,68.29
2023-03-18T00:36:06.502Z,67.95
2023-03-18T00:39:49.323Z,67.66
2023-03-18T00:43:33.992Z,67.47
2023-03-18T00:47:16.678Z,67.30
2023-03-18T00:51:00.679Z,67.29
2023-03-18T00:54:43.391Z,67.06
2023-03-18T00:58:26.067Z,67.46
2023-03-18T01:02:08.932Z,66.98
2023-03-18T01:05:51.652Z,67.17
2023-03-18T01:09:35.816Z,67.13
2023-03-18T01:13:18.469Z,66.79
2023-03-18T01:17:02.226Z,66.79
2023-03-18T01:20:45.546Z,66.80
2023-03-18T01:24:28.674Z,66.68
2023-03-18T01:28:13.228Z,66.58
2023-03-18T01:31:57.379Z,66.71
2023-03-18T01:35:41.189Z,66.51
2023-03-18T01:39:24.566Z,66.76
2023-03-18T01:43:18.775Z,66.92
2023-03-18T01:47:02.096Z,66.95
2023-03-18T01:50:45.836Z,66.66
2023-03-18T01:54:30.435Z,66.72
2023-03-18T01:58:18.556Z,66.56
2023-03-18T02:02:06.583Z,66.06
2023-03-18T02:05:51.029Z,65.92
2023-03-18T02:09:33.706Z,65.71
2023-03-18T02:13:18.461Z,66.11
2023-03-18T02:17:04.645Z,65.83
2023-03-18T02:21:00.459Z,65.64
2023-03-18T02:24:58.358Z,65.77
2023-03-18T02:28:43.294Z,65.46
2023-03-18T02:32:28.051Z,65.21
2023-03-18T02:36:15.240Z,65.15
2023-03-18T02:40:13.119Z,64.51
2023-03-18T02:43:57.337Z,64.03
2023-03-18T02:47:42.148Z,64.23
2023-03-18T02:51:25.199Z,63.60
2023-03-18T02:55:08.980Z,63.89
2023-03-18T02:58:51.865Z,63.24
2023-03-18T03:02:37.053Z,63.41
2023-03-18T03:06:20.138Z,63.21
2023-03-18T03:10:03.054Z,62.92
2023-03-18T03:13:46.186Z,62.76
2023-03-18T03:17:29.023Z,62.01
2023-03-18T03:21:13.946Z,62.08
2023-03-18T03:24:56.642Z,61.90
2023-03-18T03:28:39.376Z,61.54
2023-03-18T03:32:22.169Z,61.05
2023-03-18T03:36:05.296Z,60.95
2023-03-18T03:39:49.378Z,61.24
2023-03-18T03:43:32.540Z,61.69
2023-03-18T03:47:15.417Z,61.10
2023-03-18T03:50:58.041Z,61.20
2023-03-18T03:54:41.530Z,61.40
2023-03-18T03:58:25.675Z,61.20
2023-03-18T04:02:08.859Z,60.95
2023-03-18T04:05:51.581Z,60.90
2023-03-18T04:09:34.843Z,60.73
2023-03-18T04:13:17.599Z,61.00
2023-03-18T04:17:01.610Z,60.91
2023-03-18T04:20:46.245Z,60.97
2023-03-18T04:24:29.082Z,60.75
2023-03-18T04:28:14.909Z,60.90
2023-03-18T04:31:57.650Z,60.35
2023-03-18T04:35:42.841Z,60.50
2023-03-18T04:39:25.579Z,60.28
2023-03-18T04:43:10.001Z,60.22
2023-03-18T04:46:53.588Z,60.11
2023-03-18T04:50:36.311Z,60.80
2023-03-18T04:54:20.359Z,60.76
2023-03-18T04:58:03.249Z,60.28
2023-03-18T05:01:45.941Z,60.42
2023-03-18T05:05:28.668Z,60.08
2023-03-18T05:09:12.742Z,60.30
2023-03-18T05:12:57.158Z,60.02
2023-03-18T05:16:39.816Z,60.26
2023-03-18T05:20:22.783Z,59.99
2023-03-18T05:24:05.916Z,60.08
2023-03-18T05:27:49.544Z,60.37
2023-03-18T05:31:33.613Z,60.08
2023-03-18T05:35:16.352Z,60.05
2023-03-18T05:38:59.056Z,60.35
2023-03-18T05:42:55.445Z,60.48
2023-03-18T05:46:40.086Z,60.38
2023-03-18T05:50:30.020Z,60.69
2023-03-18T05:54:12.791Z,60.90
2023-03-18T05:57:55.482Z,61.14
2023-03-18T06:01:39.891Z,60.75
2023-03-18T06:05:22.970Z,61.17
2023-03-18T06:09:06.938Z,61.04
2023-03-18T06:12:49.723Z,60.99
2023-03-18T06:16:32.837Z,61.08
2023-03-18T06:20:20.568Z,60.83
2023-03-18T06:24:03.345Z,61.01
2023-03-18T06:27:51.839Z,60.70
2023-03-18T06:31:38.295Z,60.93
2023-03-18T06:35:22.390Z,60.84
2023-03-18T06:39:05.164Z,60.66
2023-03-18T06:42:47.847Z,60.89
2023-03-18T06:46:30.650Z,60.82
2023-03-18T06:50:13.582Z,60.58
2023-03-18T06:53:57.804Z,60.57
2023-03-18T06:57:40.448Z,60.52
2023-03-18T07:01:25.945Z,60.63
2023-03-18T07:05:09.629Z,60.55
2023-03-18T07:08:52.896Z,60.65
2023-03-18T07:12:37.132Z,60.72
2023-03-18T07:16:20.021Z,60.44
2023-03-18T07:20:05.448Z,60.62
2023-03-18T07:23:48.143Z,60.25
2023-03-18T07:27:31.653Z,59.95
2023-03-18T07:31:16.799Z,60.16
2023-03-18T07:34:59.712Z,59.75
2023-03-18T07:38:42.401Z,59.48
2023-03-18T07:42:25.061Z,58.50
2023-03-18T07:46:07.836Z,58.29
2023-03-18T07:49:52.792Z,58.18
2023-03-18T07:53:35.802Z,57.30
2023-03-18T07:57:18.986Z,56.97
2023-03-18T08:01:01.965Z,56.82
2023-03-18T08:04:46.811Z,56.55
2023-03-18T08:08:31.029Z,56.49
2023-03-18T08:12:14.154Z,56.07
2023-03-18T08:15:57.390Z,55.13
2023-03-18T08:19:40.178Z,55.52
2023-03-18T08:23:23.589Z,55.34
2023-03-18T08:27:09.120Z,55.35
2023-03-18T08:30:55.788Z,54.30
2023-03-18T08:34:38.950Z,54.34
2023-03-18T08:38:21.658Z,54.16
2023-03-18T08:42:04.572Z,54.20
2023-03-18T08:45:52.694Z,53.65
2023-03-18T08:49:35.731Z,53.06
2023-03-18T08:53:19.521Z,52.54
2023-03-18T08:57:02.670Z,52.31
2023-03-18T09:00:45.731Z,52.06
2023-03-18T09:04:30.506Z,51.34
2023-03-18T09:08:13.544Z,51.29
2023-03-18T09:11:56.446Z,50.26
2023-03-18T09:15:39.132Z,50.39
2023-03-18T09:19:22.030Z,50.60
2023-03-18T09:23:06.263Z,50.74
2023-03-18T09:26:49.167Z,50.62
2023-03-18T09:30:32.484Z,50.30
2023-03-18T09:34:15.915Z,48.57
2023-03-18T09:37:58.605Z,48.79
2023-03-18T09:41:49.794Z,48.23
2023-03-18T09:45:36.084Z,48.23
2023-03-18T09:49:40.081Z,47.74
2023-03-18T09:53:26.584Z,48.36
2023-03-18T09:57:15.850Z,47.69
2023-03-18T10:01:01.506Z,46.74
2023-03-18T10:04:50.218Z,47.09
2023-03-18T10:08:43.982Z,46.77
2023-03-18T10:12:33.289Z,45.90
2023-03-18T10:16:21.737Z,44.85
2023-03-18T10:20:14.932Z,44.93
2023-03-18T10:24:03.573Z,45.24
2023-03-18T10:27:52.960Z,43.21
2023-03-18T10:31:43.114Z,42.73
2023-03-18T10:35:28.195Z,41.53
2023-03-18T10:39:15.316Z,41.04
2023-03-18T10:42:59.736Z,41.69
2023-03-18T10:46:43.903Z,42.52
2023-03-18T10:50:33.458Z,40.49
2023-03-18T10:54:22.021Z,39.75
2023-03-18T10:58:15.820Z,40.47
2023-03-18T11:02:02.716Z,41.10
2023-03-18T11:05:45.712Z,41.23
2023-03-18T11:09:33.060Z,41.17
2023-03-18T11:13:18.644Z,41.24
2023-03-18T11:17:02.781Z,40.55
2023-03-18T11:20:48.035Z,39.75
2023-03-18T11:24:38.857Z,38.81
2023-03-18T11:28:27.092Z,38.42
2023-03-18T11:32:25.226Z,39.19
2023-03-18T11:36:09.979Z,40.08
2023-03-18T11:39:58.691Z,39.58
2023-03-18T11:43:56.921Z,39.33
2023-03-18T11:47:40.298Z,38.54
2023-03-18T11:51:40.872Z,38.88
2023-03-18T11:55:31.895Z,39.39
2023-03-18T11:59:23.836Z,39.36
2023-03-18T12:03:33.007Z,40.41
2023-03-18T12:07:30.548Z,39.01
2023-03-18T12:11:16.312Z,39.70
2023-03-18T12:15:04.141Z,39.55
2023-03-18T12:19:13.652Z,38.22
2023-03-18T12:23:04.070Z,38.80
2023-03-18T12:26:53.134Z,38.31
2023-03-18T12:31:06.339Z,37.87
2023-03-18T12:34:57.836Z,37.56
2023-03-18T12:38:58.766Z,37.38
2023-03-18T12:43:00.341Z,36.59
2023-03-18T12:46:46.947Z,37.71
2023-03-18T12:50:36.654Z,36.66
2023-03-18T12:54:23.581Z,37.25
2023-03-18T12:58:08.655Z,37.92
2023-03-18T13:02:05.152Z,36.03
2023-03-18T13:05:50.818Z,36.19
2023-03-18T13:09:37.168Z,35.35
2023-03-18T13:13:20.114Z,35.31
2023-03-18T13:17:04.608Z,34.50
2023-03-18T13:20:48.262Z,34.30
2023-03-18T13:24:56.645Z,33.30
2023-03-18T13:28:48.832Z,33.44
2023-03-18T13:32:58.865Z,33.46
2023-03-18T13:36:58.626Z,33.06
2023-03-18T13:40:52.341Z,33.21
2023-03-18T13:44:39.569Z,32.49
2023-03-18T13:48:28.844Z,32.82
2023-03-18T13:52:24.336Z,32.18
2023-03-18T13:56:08.111Z,31.29
2023-03-18T13:59:51.128Z,32.34
2023-03-18T14:03:54.560Z,31.59
2023-03-18T14:07:47.778Z,31.82
2023-03-18T14:11:50.034Z,31.33
2023-03-18T14:15:42.544Z,31.80
2023-03-18T14:19:32.319Z,31.17
2023-03-18T14:23:39.172Z,30.68
2023-03-18T14:27:22.701Z,30.99
2023-03-18T14:31:33.070Z,31.92
2023-03-18T14:35:28.677Z,30.62
2023-03-18T14:39:15.264Z,30.66
2023-03-18T14:42:59.904Z,30.26
2023-03-18T14:46:44.822Z,29.96
2023-03-18T14:50:40.377Z,30.21
2023-03-18T14:54:25.445Z,30.67
2023-03-18T14:58:16.738Z,30.91
2023-03-18T15:01:59.678Z,30.78
2023-03-18T15:05:46.552Z,31.05
2023-03-18T15:09:33.599Z,31.70
2023-03-18T15:13:18.665Z,32.10
2023-03-18T15:17:03.156Z,32.32
2023-03-18T15:20:52.991Z,32.20
2023-03-18T15:24:38.718Z,32.40
2023-03-18T15:28:28.315Z,32.17
2023-03-18T15:32:18.252Z,32.57
2023-03-18T15:36:07.576Z,32.81
2023-03-18T15:39:56.853Z,32.47
2023-03-18T15:43:41.384Z,33.17
2023-03-18T15:47:30.221Z,32.57
2023-03-18T15:51:31.993Z,33.41
2023-03-18T15:55:29.170Z,33.95
2023-03-18T15:59:15.957Z,34.42
2023-03-18T16:02:59.586Z,34.80
2023-03-18T16:06:43.745Z,35.35
2023-03-18T16:10:26.646Z,35.73
2023-03-18T16:14:11.078Z,35.64
2023-03-18T16:17:55.043Z,35.86
2023-03-18T16:21:37.727Z,35.90
2023-03-18T16:25:22.342Z,36.12
2023-03-18T16:29:15.585Z,36.37
2023-03-18T16:32:59.713Z,36.75
2023-03-18T16:36:42.486Z,37.21
2023-03-18T16:40:27.934Z,36.99
2023-03-18T16:44:13.381Z,37.23
2023-03-18T16:47:58.047Z,37.27
2023-03-18T16:51:41.239Z,37.63
2023-03-18T16:55:26.011Z,37.88
2023-03-18T16:59:12.735Z,38.42
2023-03-18T17:02:55.502Z,38.88
2023-03-18T17:06:38.187Z,39.13
2023-03-18T17:10:22.895Z,39.73
2023-03-18T17:14:07.291Z,39.89
2023-03-18T17:17:52.995Z,40.44
2023-03-18T17:21:35.827Z,40.92
2023-03-18T17:25:18.516Z,42.02
2023-03-18T17:29:01.302Z,42.23
2023-03-18T17:32:46.213Z,42.00
2023-03-18T17:36:28.893Z,42.48
2023-03-18T17:40:13.224Z,42.98
2023-03-18T17:43:55.912Z,42.66
2023-03-18T17:47:38.660Z,42.62
2023-03-18T17:51:24.681Z,42.43
2023-03-18T17:55:15.057Z,43.00
2023-03-18T17:58:57.729Z,43.46
2023-03-18T18:02:40.562Z,43.69
2023-03-18T18:06:27.144Z,43.98
2023-03-18T18:10:11.761Z,44.25
2023-03-18T18:13:57.922Z,43.56
2023-03-18T18:17:41.366Z,43.79
2023-03-18T18:21:26.331Z,43.48
2023-03-18T18:25:15.752Z,43.40
2023-03-18T18:28:58.719Z,43.81
2023-03-18T18:32:41.832Z,44.20
2023-03-18T18:36:28.144Z,44.26
2023-03-18T18:40:13.570Z,44.39
2023-03-18T18:43:56.632Z,44.39
2023-03-18T18:47:39.506Z,44.50
2023-03-18T18:51:24.133Z,44.59
2023-03-18T18:55:09.400Z,44.73
2023-03-18T18:58:53.276Z,45.20
2023-03-18T19:02:37.857Z,45.02
2023-03-18T19:06:26.625Z,45.36
2023-03-18T19:10:18.246Z,45.70
2023-03-18T19:14:20.129Z,45.43
2023-03-18T19:18:04.801Z,45.97
2023-03-18T19:21:47.603Z,46.00
2023-03-18T19:25:35.290Z,46.71
2023-03-18T19:29:18.060Z,46.37
2023-03-18T19:33:02.279Z,46.89
2023-03-18T19:36:46.602Z,46.92
2023-03-18T19:40:31.747Z,46.88
2023-03-18T19:44:17.985Z,46.80
2023-03-18T19:48:00.609Z,46.89
2023-03-18T19:51:43.614Z,47.06
2023-03-18T19:55:27.203Z,47.57
2023-03-18T19:59:20.943Z,47.84
2023-03-18T20:03:04.582Z,48.40
2023-03-18T20:06:48.455Z,48.31
2023-03-18T20:10:31.320Z,48.85
2023-03-18T20:14:22.967Z,48.82
2023-03-18T20:18:07.388Z,48.73
2023-03-18T20:21:50.363Z,48.98
2023-03-18T20:25:36.510Z,49.17
2023-03-18T20:29:25.254Z,49.31
2023-03-18T20:33:08.557Z,49.48
2023-03-18T20:36:52.063Z,49.72
2023-03-18T20:40:34.836Z,50.17
2023-03-18T20:44:17.605Z,50.63
2023-03-18T20:48:01.631Z,51.01
2023-03-18T20:51:44.536Z,51.29
2023-03-18T20:55:30.325Z,51.27
2023-03-18T20:59:13.651Z,51.33
2023-03-18T21:02:57.613Z,51.49
2023-03-18T21:06:42.020Z,51.58
2023-03-18T21:10:26.444Z,52.03
2023-03-18T21:14:15.181Z,51.96
2023-03-18T21:17:58.277Z,52.33
2023-03-18T21:21:42.831Z,52.84
2023-03-18T21:25:27.340Z,52.98
2023-03-18T21:29:10.112Z,53.43
2023-03-18T21:32:52.782Z,53.80
2023-03-18T21:36:36.422Z,54.48
2023-03-18T21:40:21.852Z,54.08
2023-03-18T21:44:04.593Z,54.50
2023-03-18T21:47:47.237Z,54.80
2023-03-18T21:51:39.153Z,55.04
2023-03-18T21:55:24.055Z,55.09
2023-03-18T21:59:06.698Z,55.04
2023-03-18T22:02:49.889Z,55.33
2023-03-18T22:06:33.392Z,55.60
2023-03-18T22:10:17.477Z,55.86
2023-03-18T22:14:01.493Z,55.91
2023-03-18T22:17:44.160Z,56.06
2023-03-18T22:21:28.329Z,56.35
2023-03-18T22:25:17.460Z,57.41
2023-03-18T22:29:01.467Z,57.51
2023-03-18T22:32:45.686Z,57.08
2023-03-18T22:36:29.557Z,56.72
2023-03-18T22:40:16.985Z,57.06
2023-03-18T22:44:03.506Z,57.01
2023-03-18T22:47:46.218Z,57.20
2023-03-18T22:51:31.241Z,57.26
2023-03-18T22:55:19.838Z,57.38
2023-03-18T22:59:04.557Z,57.57
2023-03-18T23:02:47.294Z,58.73
2023-03-18T23:06:30.072Z,58.25
2023-03-18T23:10:13.988Z,58.30
2023-03-18T23:13:56.852Z,58.17
2023-03-18T23:17:41.151Z,58.56
2023-03-18T23:21:25.094Z,58.71
2023-03-18T23:25:09.100Z,58.74
2023-03-18T23:28:51.792Z,59.21
2023-03-18T23:32:35.407Z,59.17
2023-03-18T23:36:19.565Z,59.34
2023-03-18T23:40:02.323Z,59.36
2023-03-18T23:43:45.754Z,59.57
2023-03-18T23:47:28.506Z,59.35
2023-03-18T23:51:11.163Z,59.81
2023-03-18T23:54:55.516Z,59.68
2023-03-18T23:58:38.191Z,59.64
